Time;durP1;ratioP1;P1;durP2;ratioP2;P2;SDS_P1;SDS_P2;PMS_P1;PMS_P2;Temp;Humidity;BMP_temperature;BMP_pressure;BME280_temperature;BME280_humidity;BME280_pressure;Samples;Min_cycle;Max_cycle;Signal;HPM_P1;HPM_P2
2022/10/22 00:00:32;;;;;;;35.47;23.83;;;13.30;99.90;;;;;;4769350;29;20039;-74
2022/10/22 00:02:58;;;;;;;33.85;21.40;;;13.30;99.90;;;;;;4769122;30;20110;-73
2022/10/22 00:05:24;;;;;;;33.53;21.73;;;13.30;99.90;;;;;;4783074;24;20061;-74
2022/10/22 00:07:50;;;;;;;33.53;21.30;;;13.40;99.90;;;;;;4787576;30;20557;-73
2022/10/22 00:10:17;;;;;;;45.90;32.97;;;13.40;99.90;;;;;;4787329;30;20028;-73
2022/10/22 00:12:44;;;;;;;35.00;24.00;;;13.40;99.90;;;;;;4787098;30;20036;-73
2022/10/22 00:15:11;;;;;;;27.67;19.77;;;13.40;99.90;;;;;;4774305;29;20379;-74
2022/10/22 00:17:37;;;;;;;32.78;22.60;;;13.30;99.90;;;;;;4786928;29;20031;-74
2022/10/22 00:20:03;;;;;;;29.92;21.27;;;13.40;99.90;;;;;;4783434;29;20035;-74
2022/10/22 00:22:29;;;;;;;41.35;24.30;;;13.40;99.90;;;;;;4779691;30;20670;-73
2022/10/22 00:24:55;;;;;;;32.17;20.90;;;13.30;99.90;;;;;;4790134;30;20050;-74
2022/10/22 00:27:21;;;;;;;34.38;19.63;;;13.30;99.90;;;;;;4790183;30;20106;-73
2022/10/22 00:29:47;;;;;;;30.17;20.10;;;13.30;99.90;;;;;;4790159;30;20035;-73
2022/10/22 00:32:14;;;;;;;32.25;21.48;;;13.40;99.90;;;;;;4789846;30;20060;-74
2022/10/22 00:34:39;;;;;;;37.20;24.05;;;13.40;99.90;;;;;;4789947;30;20096;-73
2022/10/22 00:37:14;;;;;;;29.30;20.67;;;13.40;99.90;;;;;;4789847;30;20827;-74
2022/10/22 00:39:40;;;;;;;30.73;20.52;;;13.30;99.90;;;;;;4773834;30;20432;-74
2022/10/22 00:42:09;;;;;;;31.35;19.15;;;13.40;99.90;;;;;;4790254;29;20541;-74
2022/10/22 00:44:59;;;;;;;27.27;17.67;;;13.40;99.90;;;;;;4790313;30;20055;-74
2022/10/22 00:48:19;;;;;;;30.92;20.00;;;13.50;99.90;;;;;;4790129;29;20043;-74
2022/10/22 00:50:51;;;;;;;29.33;18.70;;;13.50;99.90;;;;;;4778268;24;20055;-73
2022/10/22 00:53:24;;;;;;;31.88;20.17;;;13.50;99.90;;;;;;4789467;30;20069;-74
2022/10/22 00:55:52;;;;;;;32.45;21.05;;;13.50;99.90;;;;;;4789642;30;20487;-74
2022/10/22 00:58:23;;;;;;;35.33;20.65;;;13.40;99.90;;;;;;4789559;30;20038;-73
2022/10/22 01:00:49;;;;;;;30.17;20.27;;;13.40;99.90;;;;;;4789522;30;20053;-74
2022/10/22 01:03:14;;;;;;;29.70;21.33;;;13.50;99.90;;;;;;4773406;30;20471;-73
2022/10/22 01:05:45;;;;;;;30.42;20.00;;;13.50;99.90;;;;;;4773579;30;20092;-74
2022/10/22 01:08:24;;;;;;;32.33;21.30;;;13.50;99.90;;;;;;4789827;30;20035;-74
2022/10/22 01:10:50;;;;;;;34.35;20.65;;;13.30;99.90;;;;;;4789460;30;20478;-74
2022/10/22 01:13:34;;;;;;;35.20;22.05;;;13.20;99.90;;;;;;4789579;30;20076;-74
2022/10/22 01:16:11;;;;;;;36.55;23.27;;;13.20;99.90;;;;;;4778952;30;20032;-74
2022/10/22 01:19:22;;;;;;;36.97;23.63;;;13.20;99.90;;;;;;4789151;30;20039;-73
2022/10/22 01:21:56;;;;;;;35.83;21.80;;;13.10;99.90;;;;;;4733828;30;20055;-74
2022/10/22 01:24:47;;;;;;;33.55;20.83;;;13.00;99.90;;;;;;4734215;30;20059;-74
2022/10/22 01:27:37;;;;;;;38.08;22.85;;;13.00;99.90;;;;;;4719587;30;20055;-73
2022/10/22 01:30:08;;;;;;;36.75;23.10;;;13.00;99.90;;;;;;4733982;30;20051;-73
2022/10/22 01:32:43;;;;;;;35.28;23.98;;;13.00;99.90;;;;;;4732964;30;20629;-73
2022/10/22 01:35:13;;;;;;;35.85;23.80;;;12.90;99.90;;;;;;4727469;30;20657;-73
2022/10/22 01:37:45;;;;;;;37.97;25.00;;;12.90;99.90;;;;;;4732131;30;20041;-74
2022/10/22 01:40:12;;;;;;;;;;;12.90;99.90;;;;;;4733687;30;20511;-73
2022/10/22 01:42:38;;;;;;;34.67;22.88;;;13.00;99.90;;;;;;4733668;30;19911;-73
2022/10/22 01:45:14;;;;;;;39.10;23.10;;;13.00;99.90;;;;;;4733253;30;20551;-72
2022/10/22 01:47:45;;;;;;;35.58;23.40;;;13.10;99.90;;;;;;4733541;30;20061;-74
2022/10/22 01:50:14;;;;;;;33.13;22.48;;;13.10;99.90;;;;;;4720495;30;20119;-74
2022/10/22 01:52:54;;;;;;;36.92;25.05;;;13.00;99.90;;;;;;4763440;30;20090;-73
2022/10/22 01:55:29;;;;;;;35.40;23.05;;;13.00;99.90;;;;;;4788805;30;20485;-73
2022/10/22 01:58:07;;;;;;;36.55;24.75;;;13.10;99.90;;;;;;4788619;30;20518;-73
2022/10/22 02:00:38;;;;;;;36.88;23.50;;;13.10;99.90;;;;;;4775768;30;20023;-74
2022/10/22 02:03:13;;;;;;;41.38;25.92;;;13.10;99.90;;;;;;4772398;30;20065;-73
2022/10/22 02:05:52;;;;;;;39.85;25.70;;;13.20;99.90;;;;;;4788353;30;20142;-74
2022/10/22 02:08:24;;;;;;;37.30;25.10;;;13.20;99.90;;;;;;4788523;30;20151;-73
2022/10/22 02:10:51;;;;;;;38.10;25.92;;;13.20;99.90;;;;;;4788527;30;20044;-74
2022/10/22 02:13:23;;;;;;;34.95;24.75;;;13.20;99.90;;;;;;4788359;30;20039;-73
2022/10/22 02:15:51;;;;;;;37.63;24.33;;;13.20;99.90;;;;;;4754032;30;20047;-74
2022/10/22 02:18:20;;;;;;;38.10;24.85;;;13.20;99.90;;;;;;4781025;29;20118;-73
2022/10/22 02:20:47;;;;;;;41.00;25.58;;;13.30;99.90;;;;;;4788014;30;20036;-73
2022/10/22 02:23:13;;;;;;;40.63;28.38;;;13.30;99.90;;;;;;4788228;30;20038;-73
2022/10/22 02:25:42;;;;;;;40.50;25.63;;;13.30;99.90;;;;;;4787809;30;20475;-73
2022/10/22 02:28:39;;;;;;;40.00;27.42;;;13.30;99.90;;;;;;4788038;30;20383;-74
2022/10/22 02:31:15;;;;;;;39.30;25.65;;;13.40;99.90;;;;;;4788322;30;20471;-73
2022/10/22 02:33:46;;;;;;;39.00;26.75;;;13.40;99.90;;;;;;4788096;30;20027;-74
2022/10/22 02:36:14;;;;;;;44.47;27.55;;;13.40;99.90;;;;;;4787603;30;20383;-74
2022/10/22 02:38:41;;;;;;;38.42;28.25;;;13.40;99.90;;;;;;4787963;30;20153;-73
2022/10/22 02:41:08;;;;;;;44.70;28.63;;;13.50;99.90;;;;;;4787570;30;20407;-73
2022/10/22 02:43:49;;;;;;;46.85;28.85;;;13.40;99.90;;;;;;4787493;29;20023;-74
2022/10/22 02:46:15;;;;;;;43.63;29.17;;;13.40;99.90;;;;;;4787206;30;20054;-73
2022/10/22 02:48:41;;;;;;;42.22;28.52;;;13.40;99.90;;;;;;4787645;30;20031;-73
2022/10/22 02:51:07;;;;;;;38.72;26.42;;;13.40;99.90;;;;;;4787292;30;20055;-73
2022/10/22 02:53:32;;;;;;;33.72;24.60;;;13.30;99.90;;;;;;4787570;30;20143;-74
2022/10/22 02:55:58;;;;;;;35.40;24.83;;;13.20;99.90;;;;;;4787683;30;20490;-74
2022/10/22 02:58:24;;;;;;;39.15;25.13;;;13.20;99.90;;;;;;4787266;30;20038;-73
2022/10/22 03:00:50;;;;;;;41.13;27.17;;;13.10;99.90;;;;;;4787425;30;20039;-74
2022/10/22 03:03:16;;;;;;;38.70;27.20;;;13.00;99.90;;;;;;4786982;30;20028;-73
2022/10/22 03:05:42;;;;;;;38.70;26.48;;;13.00;99.90;;;;;;4787330;30;20040;-74
2022/10/22 03:08:08;;;;;;;39.78;27.75;;;13.10;99.90;;;;;;4787100;30;20027;-74
2022/10/22 03:10:33;;;;;;;45.55;27.17;;;13.10;99.90;;;;;;4786936;30;20046;-73
2022/10/22 03:13:00;;;;;;;41.75;28.85;;;13.20;99.90;;;;;;4787412;30;20033;-73
2022/10/22 03:15:25;;;;;;;42.47;27.58;;;13.20;99.90;;;;;;4786841;30;20088;-73
2022/10/22 03:17:51;;;;;;;41.40;28.75;;;13.20;99.90;;;;;;4786722;30;20035;-74
2022/10/22 03:20:17;;;;;;;47.38;29.20;;;13.20;99.90;;;;;;4786483;30;20036;-74
2022/10/22 03:22:44;;;;;;;38.72;26.75;;;13.30;99.90;;;;;;4765923;30;20040;-74
2022/10/22 03:25:14;;;;;;;38.60;26.67;;;13.20;99.90;;;;;;4787089;29;20042;-73
2022/10/22 03:27:41;;;;;;;45.38;30.98;;;13.10;99.90;;;;;;4786896;30;20035;-73
2022/10/22 03:30:08;;;;;;;38.83;23.98;;;13.00;99.90;;;;;;4786827;30;20039;-73
2022/10/22 03:32:34;;;;;;;45.78;27.02;;;12.90;99.90;;;;;;4786736;30;20134;-73
2022/10/22 03:35:00;;;;;;;38.95;27.08;;;13.00;99.90;;;;;;4786729;30;20106;-74
2022/10/22 03:37:26;;;;;;;42.95;29.13;;;13.00;99.90;;;;;;4786770;30;20059;-73
2022/10/22 03:39:54;;;;;;;38.05;25.38;;;12.80;99.90;;;;;;4786788;29;20065;-73
2022/10/22 03:42:21;;;;;;;41.03;25.35;;;12.90;99.90;;;;;;4786623;30;20119;-74
2022/10/22 03:44:47;;;;;;;38.83;27.60;;;12.90;99.90;;;;;;4786304;30;20031;-73
2022/10/22 03:47:13;;;;;;;37.75;27.23;;;12.90;99.90;;;;;;4786444;30;20047;-74
2022/10/22 03:49:38;;;;;;;47.80;28.48;;;13.00;99.90;;;;;;4786014;30;20071;-73
2022/10/22 03:52:10;;;;;;;46.38;29.75;;;13.10;99.90;;;;;;4786736;30;20074;-73
2022/10/22 03:54:36;;;;;;;49.30;30.35;;;13.00;99.90;;;;;;4787120;30;20042;-74
2022/10/22 03:57:04;;;;;;;42.75;28.77;;;13.10;99.90;;;;;;4789548;29;20083;-74
2022/10/22 03:59:44;;;;;;;43.95;28.65;;;13.10;99.90;;;;;;4790578;30;20065;-74
2022/10/22 04:02:19;;;;;;;54.05;29.73;;;13.10;99.90;;;;;;4790478;30;20103;-74
2022/10/22 04:04:45;;;;;;;38.30;26.38;;;13.00;99.90;;;;;;4768816;30;20525;-73
2022/10/22 04:07:10;;;;;;;40.13;25.27;;;12.90;99.90;;;;;;4769158;30;20043;-73
2022/10/22 04:09:36;;;;;;;44.13;28.70;;;12.80;99.90;;;;;;4754974;30;20097;-73
2022/10/22 04:12:05;;;;;;;45.10;29.10;;;12.70;99.90;;;;;;4771129;30;20434;-73
2022/10/22 04:14:31;;;;;;;40.83;26.77;;;12.60;99.90;;;;;;4779117;30;20040;-74
2022/10/22 04:16:57;;;;;;;35.67;24.60;;;12.70;99.90;;;;;;4769642;30;20155;-74
2022/10/22 04:19:23;;;;;;;38.90;26.85;;;12.70;99.90;;;;;;4770352;30;20040;-74
2022/10/22 04:21:49;;;;;;;31.65;24.23;;;12.70;99.90;;;;;;4769555;30;20514;-73
2022/10/22 04:24:14;;;;;;;32.92;23.80;;;12.80;99.90;;;;;;4770002;30;20092;-74
2022/10/22 04:26:40;;;;;;;35.60;23.33;;;12.80;99.90;;;;;;4769723;30;20039;-74
2022/10/22 04:29:06;;;;;;;33.28;22.02;;;12.80;99.90;;;;;;4769623;30;20114;-74
2022/10/22 04:31:33;;;;;;;38.25;25.10;;;12.80;99.90;;;;;;4769229;30;20205;-74
2022/10/22 04:34:00;;;;;;;36.15;23.80;;;12.70;99.90;;;;;;4769663;30;20387;-73
2022/10/22 04:36:27;;;;;;;35.83;24.30;;;12.70;99.90;;;;;;4785376;30;20043;-73
2022/10/22 04:39:00;;;;;;;30.50;21.55;;;12.70;99.90;;;;;;4789465;29;20038;-74
2022/10/22 04:41:29;;;;;;;38.47;22.27;;;12.70;99.90;;;;;;4789562;30;20425;-74
2022/10/22 04:43:55;;;;;;;36.60;23.17;;;12.70;99.90;;;;;;4789472;30;20031;-74
2022/10/22 04:46:22;;;;;;;33.92;20.95;;;12.60;99.90;;;;;;4789533;30;20391;-73
2022/10/22 04:48:49;;;;;;;35.33;22.05;;;12.60;99.90;;;;;;4789650;30;20070;-74
2022/10/22 04:51:18;;;;;;;35.22;21.85;;;12.70;99.90;;;;;;4788972;29;20415;-74
2022/10/22 04:53:44;;;;;;;32.22;22.52;;;12.70;99.90;;;;;;4789341;30;20031;-73
2022/10/22 04:56:12;;;;;;;31.70;21.77;;;12.70;99.90;;;;;;4789191;30;20502;-74
2022/10/22 04:58:38;;;;;;;37.55;22.75;;;12.60;99.90;;;;;;4789130;30;20067;-74
2022/10/22 05:01:37;;;;;;;33.63;22.98;;;12.60;99.90;;;;;;4789456;30;20107;-74
2022/10/22 05:04:05;;;;;;;32.50;22.48;;;12.50;99.90;;;;;;4772838;30;20130;-74
2022/10/22 05:06:33;;;;;;;35.10;24.70;;;12.50;99.90;;;;;;4788923;30;20027;-73
2022/10/22 05:09:04;;;;;;;37.10;25.00;;;12.50;99.90;;;;;;4787385;29;20039;-73
2022/10/22 05:11:33;;;;;;;35.10;23.77;;;12.40;99.90;;;;;;4782893;29;20571;-73
2022/10/22 05:14:01;;;;;;;33.30;22.92;;;12.40;99.90;;;;;;4788936;29;20122;-73
2022/10/22 05:16:28;;;;;;;63.03;46.85;;;12.40;99.90;;;;;;4789189;30;20047;-74
2022/10/22 05:18:54;;;;;;;44.88;28.92;;;12.40;99.90;;;;;;4789069;30;20081;-73
2022/10/22 05:21:20;;;;;;;28.25;21.13;;;12.40;99.90;;;;;;4788744;30;20039;-74
2022/10/22 05:23:48;;;;;;;37.83;24.45;;;12.40;99.90;;;;;;4789050;30;20030;-74
2022/10/22 05:26:17;;;;;;;36.83;26.25;;;12.40;99.90;;;;;;4788831;30;20114;-74
2022/10/22 05:28:43;;;;;;;33.08;23.73;;;12.40;99.90;;;;;;4788824;30;20074;-74
2022/10/22 05:31:11;;;;;;;38.80;25.45;;;12.50;99.90;;;;;;4788612;30;20059;-74
2022/10/22 05:33:38;;;;;;;43.55;26.65;;;12.60;99.90;;;;;;4788969;30;20053;-74
2022/10/22 05:36:06;;;;;;;57.88;35.83;;;12.70;99.90;;;;;;4788308;30;20031;-74
2022/10/22 05:38:33;;;;;;;49.05;32.15;;;13.10;99.90;;;;;;4788298;30;20064;-74
2022/10/22 05:41:10;;;;;;;44.72;29.33;;;13.20;99.90;;;;;;4788396;30;20039;-74
2022/10/22 05:43:36;;;;;;;46.78;27.38;;;13.20;99.90;;;;;;4788516;30;20073;-75
2022/10/22 05:46:08;;;;;;;44.30;27.00;;;13.30;99.90;;;;;;4788743;30;20035;-74
2022/10/22 05:48:34;;;;;;;42.10;25.13;;;13.40;99.90;;;;;;4788474;30;20372;-74
2022/10/22 05:51:11;;;;;;;35.22;23.40;;;13.40;99.90;;;;;;4788343;30;20448;-74
2022/10/22 05:53:40;;;;;;;33.33;23.38;;;13.60;99.90;;;;;;4788476;30;20456;-74
2022/10/22 05:56:10;;;;;;;39.25;26.33;;;13.60;99.90;;;;;;4788676;30;20034;-74
2022/10/22 05:58:36;;;;;;;49.72;34.72;;;13.60;99.90;;;;;;4788128;30;20538;-73
2022/10/22 06:01:07;;;;;;;47.00;28.85;;;13.70;99.90;;;;;;4788229;30;20107;-75
2022/10/22 06:03:33;;;;;;;56.40;32.20;;;13.50;99.90;;;;;;4786295;30;20047;-74
2022/10/22 06:06:02;;;;;;;44.15;26.52;;;13.50;99.90;;;;;;4785502;30;20267;-75
2022/10/22 06:08:28;;;;;;;55.10;30.25;;;13.60;99.90;;;;;;4787308;30;20704;-74
2022/10/22 06:10:54;;;;;;;48.42;29.88;;;13.70;99.90;;;;;;4787379;30;20403;-74
2022/10/22 06:13:21;;;;;;;46.35;29.80;;;13.70;99.90;;;;;;4788201;30;20367;-74
2022/10/22 06:15:48;;;;;;;44.72;29.35;;;13.60;99.90;;;;;;4783817;30;20059;-74
2022/10/22 06:18:14;;;;;;;41.15;27.58;;;13.60;99.90;;;;;;4788929;29;20046;-74
2022/10/22 06:20:42;;;;;;;45.15;27.50;;;13.40;99.90;;;;;;4788056;30;20032;-75
2022/10/22 06:23:08;;;;;;;39.08;27.40;;;13.40;99.90;;;;;;4787232;30;20039;-74
2022/10/22 06:25:34;;;;;;;38.85;27.52;;;13.40;99.90;;;;;;4787649;30;20027;-74
2022/10/22 06:27:59;;;;;;;44.00;24.88;;;13.50;99.90;;;;;;4787051;30;20039;-74
2022/10/22 06:30:25;;;;;;;41.33;24.25;;;13.60;99.90;;;;;;4783422;30;20038;-74
2022/10/22 06:32:51;;;;;;;38.65;24.52;;;13.70;99.90;;;;;;4785384;30;20762;-75
2022/10/22 06:35:17;;;;;;;38.00;24.20;;;13.80;99.90;;;;;;4771123;30;20043;-74
2022/10/22 06:37:43;;;;;;;37.03;23.83;;;13.90;99.90;;;;;;4785583;30;20400;-74
2022/10/22 06:40:09;;;;;;;36.90;24.15;;;14.10;99.90;;;;;;4783461;30;20031;-74
2022/10/22 06:42:35;;;;;;;38.92;24.85;;;14.30;99.90;;;;;;4786281;30;20484;-74
2022/10/22 06:45:01;;;;;;;42.65;27.42;;;14.50;99.90;;;;;;4786987;30;20080;-76
2022/10/22 06:47:30;;;;;;;49.58;30.55;;;14.70;99.90;;;;;;4778514;30;20107;-74
2022/10/22 06:49:56;;;;;;;53.80;32.65;;;14.90;99.90;;;;;;4781226;29;20062;-75
2022/10/22 06:52:22;;;;;;;51.30;36.55;;;15.20;99.90;;;;;;4783352;30;20035;-74
2022/10/22 06:54:47;;;;;;;53.13;35.78;;;15.30;99.90;;;;;;4786682;30;20027;-74
2022/10/22 06:57:13;;;;;;;49.25;34.67;;;15.30;99.90;;;;;;4786514;30;20104;-74
2022/10/22 06:59:39;;;;;;;50.63;33.38;;;15.40;99.90;;;;;;4786139;30;20727;-75
2022/10/22 07:02:05;;;;;;;52.33;34.08;;;15.50;99.90;;;;;;4781260;30;20486;-72
2022/10/22 07:04:31;;;;;;;39.80;29.70;;;15.70;99.90;;;;;;4773239;29;20127;-74
2022/10/22 07:06:57;;;;;;;43.17;29.25;;;15.90;99.90;;;;;;4783462;30;20035;-74
2022/10/22 07:09:22;;;;;;;43.42;31.85;;;16.10;99.90;;;;;;4785237;30;20038;-74
2022/10/22 07:11:48;;;;;;;51.72;33.95;;;16.30;99.90;;;;;;4785837;30;20135;-74
2022/10/22 07:14:14;;;;;;;56.83;34.65;;;16.40;99.90;;;;;;4785689;30;20383;-74
2022/10/22 07:16:44;;;;;;;53.85;34.42;;;16.40;99.90;;;;;;4781753;30;20088;-73
2022/10/22 07:19:10;;;;;;;44.92;31.92;;;16.70;99.90;;;;;;4771231;30;20051;-74
2022/10/22 07:21:36;;;;;;;45.65;33.78;;;16.80;99.90;;;;;;4786030;30;20058;-74
2022/10/22 07:24:02;;;;;;;48.40;32.38;;;16.80;99.90;;;;;;4786416;30;20038;-74
2022/10/22 07:26:31;;;;;;;42.80;28.55;;;17.00;99.90;;;;;;4782161;30;20359;-74
2022/10/22 07:28:59;;;;;;;34.50;24.92;;;17.10;99.90;;;;;;4785168;30;20051;-73
2022/10/22 07:31:25;;;;;;;39.55;23.98;;;17.00;99.90;;;;;;4786097;30;20038;-75
2022/10/22 07:33:51;;;;;;;51.35;23.85;;;16.90;99.90;;;;;;4786362;30;20035;-75
2022/10/22 07:36:17;;;;;;;41.60;23.35;;;17.00;99.90;;;;;;4785956;30;20031;-75
2022/10/22 07:38:53;;;;;;;37.47;26.05;;;17.00;99.90;;;;;;4786018;30;20102;-74
2022/10/22 07:41:18;;;;;;;36.17;23.88;;;17.10;99.90;;;;;;4786430;30;20092;-74
2022/10/22 07:43:45;;;;;;;38.28;22.45;;;17.20;99.90;;;;;;4776948;30;20035;-73
2022/10/22 07:46:11;;;;;;;41.70;26.20;;;17.00;99.90;;;;;;4785738;30;20042;-75
2022/10/22 07:48:37;;;;;;;36.80;23.48;;;16.90;99.90;;;;;;4786587;30;20035;-74
2022/10/22 07:51:04;;;;;;;40.40;25.38;;;16.90;99.90;;;;;;4786082;30;20154;-74
2022/10/22 07:53:30;;;;;;;37.63;25.45;;;17.00;99.90;;;;;;4786378;30;20038;-75
2022/10/22 07:55:56;;;;;;;31.42;23.13;;;17.30;99.90;;;;;;4786431;30;20039;-74
2022/10/22 07:58:22;;;;;;;48.95;22.90;;;17.70;99.90;;;;;;4769889;30;20034;-75
2022/10/22 08:00:48;;;;;;;44.92;24.10;;;18.00;99.90;;;;;;4786490;30;20028;-74
2022/10/22 08:03:16;;;;;;;42.90;25.20;;;18.30;99.90;;;;;;4786637;30;20095;-74
2022/10/22 08:05:43;;;;;;;39.67;25.95;;;18.30;99.90;;;;;;4786275;30;20386;-74
2022/10/22 08:08:14;;;;;;;43.92;24.45;;;18.50;99.90;;;;;;4786375;30;20034;-74
2022/10/22 08:10:39;;;;;;;37.33;22.95;;;18.80;99.90;;;;;;4776273;30;20027;-75
2022/10/22 08:13:06;;;;;;;35.25;24.00;;;19.00;99.90;;;;;;4778221;30;20399;-74
2022/10/22 08:15:31;;;;;;;33.55;22.20;;;18.50;99.90;;;;;;4784846;30;20110;-74
2022/10/22 08:17:57;;;;;;;39.53;21.92;;;18.60;99.90;;;;;;4786178;30;20160;-75
2022/10/22 08:20:23;;;;;;;28.88;18.95;;;18.80;99.90;;;;;;4789397;29;20438;-74
2022/10/22 08:22:49;;;;;;;37.63;17.92;;;19.10;99.90;;;;;;4786618;30;20110;-74
2022/10/22 08:25:17;;;;;;;33.47;19.45;;;19.20;99.90;;;;;;4769336;30;20046;-74
2022/10/22 08:27:43;;;;;;;34.50;20.73;;;19.40;99.90;;;;;;4785396;30;20040;-72
2022/10/22 08:30:10;;;;;;;43.28;23.35;;;19.40;99.90;;;;;;4785655;30;20027;-74
2022/10/22 08:32:36;;;;;;;34.03;21.42;;;19.40;99.90;;;;;;4785875;30;20051;-74
2022/10/22 08:35:02;;;;;;;36.65;22.10;;;19.50;99.90;;;;;;4786164;30;20031;-74
2022/10/22 08:37:28;;;;;;;40.50;24.48;;;19.60;99.90;;;;;;4785608;30;20062;-74
2022/10/22 08:39:53;;;;;;;37.13;22.27;;;19.70;99.90;;;;;;4786278;30;20106;-75
2022/10/22 08:42:41;;;;;;;30.80;20.48;;;19.80;99.90;;;;;;4786244;29;20613;-74
2022/10/22 08:45:19;;;;;;;34.83;22.15;;;19.90;99.90;;;;;;4788732;30;20057;-75
2022/10/22 08:48:22;;;;;;;39.83;25.25;;;20.10;99.90;;;;;;4789468;30;20530;-75
2022/10/22 08:50:52;;;;;;;34.22;20.13;;;20.10;99.90;;;;;;4788874;30;20051;-71
2022/10/22 08:53:21;;;;;;;34.85;20.42;;;20.20;99.90;;;;;;4789043;29;20027;-72
2022/10/22 08:55:51;;;;;;;31.00;18.42;;;20.20;99.90;;;;;;4787730;30;20114;-72
2022/10/22 08:58:33;;;;;;;32.13;17.83;;;20.20;99.90;;;;;;4789251;30;20042;-72
2022/10/22 09:01:08;;;;;;;33.38;17.83;;;20.30;99.90;;;;;;4788979;30;20394;-72
2022/10/22 09:03:40;;;;;;;25.05;16.13;;;20.40;99.90;;;;;;4788899;30;20087;-75
2022/10/22 09:06:20;;;;;;;24.98;16.63;;;20.50;99.90;;;;;;4789267;30;20031;-73
2022/10/22 09:08:47;;;;;;;36.22;17.42;;;20.60;99.90;;;;;;4789423;30;20030;-74
2022/10/22 09:11:37;;;;;;;28.42;18.58;;;20.70;99.90;;;;;;4784484;30;20035;-75
2022/10/22 09:14:16;;;;;;;29.90;16.65;;;20.70;99.90;;;;;;4780258;24;20129;-74
2022/10/22 09:17:13;;;;;;;26.73;16.25;;;20.80;99.90;;;;;;4753868;30;20061;-73
2022/10/22 09:19:53;;;;;;;25.80;16.20;;;20.90;99.90;;;;;;4744630;30;20517;-73
2022/10/22 09:22:31;;;;;;;24.38;14.57;;;20.90;99.90;;;;;;4735570;30;20051;-72
2022/10/22 09:25:21;;;;;;;24.30;14.35;;;21.00;99.90;;;;;;4745033;30;20032;-73
2022/10/22 09:27:49;;;;;;;24.52;13.98;;;21.00;99.90;;;;;;4749245;30;20506;-73
2022/10/22 09:30:22;;;;;;;28.40;15.20;;;21.10;99.90;;;;;;4743595;30;20395;-73
2022/10/22 09:33:19;;;;;;;25.15;15.65;;;21.20;99.90;;;;;;4741014;30;20036;-73
2022/10/22 09:35:51;;;;;;;25.58;14.98;;;21.20;99.90;;;;;;4752709;30;20135;-72
2022/10/22 09:38:20;;;;;;;27.00;14.30;;;21.30;99.90;;;;;;4752899;30;20040;-73
2022/10/22 09:40:54;;;;;;;26.33;13.48;;;21.40;99.90;;;;;;4751515;30;20036;-73
2022/10/22 09:43:20;;;;;;;19.90;12.50;;;21.70;99.90;;;;;;4752946;30;20502;-72
2022/10/22 09:45:48;;;;;;;25.45;12.05;;;21.70;99.90;;;;;;4752132;30;20024;-71
2022/10/22 09:48:20;;;;;;;23.75;12.52;;;21.60;99.90;;;;;;4760945;30;20047;-70
2022/10/22 09:50:54;;;;;;;24.65;13.00;;;21.80;99.90;;;;;;4755709;30;20475;-69
2022/10/22 09:53:27;;;;;;;22.15;13.43;;;21.80;99.90;;;;;;4743541;30;20607;-74
2022/10/22 09:55:56;;;;;;;27.40;13.25;;;21.60;99.90;;;;;;4733697;30;20044;-75
2022/10/22 09:58:23;;;;;;;19.20;11.73;;;21.50;99.90;;;;;;4736555;30;20033;-70
2022/10/22 10:00:58;;;;;;;20.95;11.48;;;21.50;99.90;;;;;;4752184;30;20025;-72
2022/10/22 10:03:32;;;;;;;21.63;12.27;;;21.50;99.90;;;;;;4747132;30;20079;-73
2022/10/22 10:06:00;;;;;;;19.67;11.82;;;21.50;99.90;;;;;;4749934;30;20392;-74
2022/10/22 10:08:26;;;;;;;22.50;12.95;;;21.50;99.90;;;;;;4746567;30;20051;-72
2022/10/22 10:11:38;;;;;;;21.48;10.75;;;21.80;99.90;;;;;;4739679;30;20475;-72
2022/10/22 10:14:31;;;;;;;19.13;11.48;;;21.90;99.90;;;;;;4738103;30;20079;-72
2022/10/22 10:17:27;;;;;;;23.65;10.93;;;22.10;99.90;;;;;;4740231;30;20079;-73
2022/10/22 10:20:04;;;;;;;23.08;12.43;;;22.10;99.90;;;;;;4679753;30;20184;-71
2022/10/22 10:22:45;;;;;;;16.35;10.00;;;22.20;99.90;;;;;;4680534;30;20042;-70
2022/10/22 10:25:23;;;;;;;29.60;12.15;;;22.20;99.90;;;;;;4680501;30;20050;-72
2022/10/22 10:28:11;;;;;;;46.10;13.57;;;22.30;99.90;;;;;;4684613;30;20034;-73
2022/10/22 10:31:11;;;;;;;21.00;11.68;;;22.30;99.90;;;;;;4661453;30;20061;-73
2022/10/22 10:36:49;;;;;;;19.52;11.07;;;22.40;99.90;;;;;;4729058;30;20052;-74
2022/10/22 10:39:28;;;;;;;22.27;12.32;;;22.50;99.90;;;;;;4731596;30;20553;-74
2022/10/22 10:42:16;;;;;;;24.40;12.98;;;22.50;99.90;;;;;;4688569;30;20041;-72
2022/10/22 10:44:54;;;;;;;20.33;11.93;;;22.60;99.90;;;;;;4732788;30;20035;-73
2022/10/22 10:47:44;;;;;;;26.00;13.40;;;22.60;99.90;;;;;;4732859;30;20032;-75
2022/10/22 10:50:28;;;;;;;23.23;12.15;;;22.60;99.90;;;;;;4730477;30;20074;-70
2022/10/22 10:53:28;;;;;;;28.38;12.57;;;22.60;99.90;;;;;;4730976;30;20047;-75
2022/10/22 10:55:57;;;;;;;20.15;11.85;;;22.70;99.90;;;;;;4731144;30;20039;-72
2022/10/22 10:59:06;;;;;;;24.05;12.48;;;22.70;99.90;;;;;;4729844;30;20136;-72
2022/10/22 11:01:36;;;;;;;25.70;13.30;;;22.90;99.90;;;;;;4732237;30;20957;-72
2022/10/22 11:04:23;;;;;;;28.25;13.27;;;23.00;99.90;;;;;;4732621;30;20036;-72
2022/10/22 11:06:52;;;;;;;27.13;12.25;;;23.00;99.90;;;;;;4731959;30;20033;-73
2022/10/22 11:09:29;;;;;;;24.45;12.73;;;23.00;99.90;;;;;;4730935;30;20106;-72
2022/10/22 11:12:11;;;;;;;28.80;13.55;;;23.10;99.90;;;;;;4730987;30;20032;-72
2022/10/22 11:14:56;;;;;;;22.83;12.68;;;23.10;99.90;;;;;;4702040;30;20527;-72
2022/10/22 11:17:25;;;;;;;26.08;14.07;;;23.20;99.90;;;;;;4730991;30;20039;-72
2022/10/22 11:19:54;;;;;;;21.63;12.88;;;23.20;99.90;;;;;;4732339;30;20055;-72
2022/10/22 11:22:29;;;;;;;23.42;12.63;;;23.10;99.90;;;;;;4730992;30;20076;-72
2022/10/22 11:25:14;;;;;;;21.13;11.88;;;23.00;99.90;;;;;;4730180;30;20029;-72
2022/10/22 11:27:56;;;;;;;21.15;12.48;;;23.00;99.90;;;;;;4730306;30;20040;-72
2022/10/22 11:30:26;;;;;;;23.80;11.18;;;23.10;99.90;;;;;;4731984;30;20024;-72
2022/10/22 11:32:56;;;;;;;23.45;10.95;;;22.90;99.90;;;;;;4731368;30;20435;-72
2022/10/22 11:35:32;;;;;;;24.60;12.30;;;23.00;99.90;;;;;;4732055;30;20563;-72
2022/10/22 11:38:00;;;;;;;30.88;15.05;;;23.00;99.90;;;;;;4732275;30;20740;-72
2022/10/22 11:40:34;;;;;;;34.17;13.15;;;22.90;99.90;;;;;;4732377;30;20454;-72
2022/10/22 11:43:09;;;;;;;30.25;14.55;;;22.90;99.90;;;;;;4730543;30;20041;-71
2022/10/22 11:45:37;;;;;;;34.80;17.35;;;22.80;99.90;;;;;;4731995;30;20024;-73
2022/10/22 11:48:09;;;;;;;23.77;12.77;;;22.70;99.90;;;;;;4731840;30;20033;-72
2022/10/22 11:50:45;;;;;;;29.45;13.10;;;22.70;99.90;;;;;;4731970;30;20036;-71
2022/10/22 11:53:11;;;;;;;25.77;12.93;;;22.70;99.90;;;;;;4728753;30;20091;-71
2022/10/22 11:55:58;;;;;;;21.45;11.65;;;22.80;99.90;;;;;;4714784;30;20512;-71
2022/10/22 11:58:37;;;;;;;25.92;12.55;;;22.90;99.90;;;;;;4731477;30;21303;-72
2022/10/22 12:01:06;;;;;;;30.92;18.02;;;23.00;99.90;;;;;;4715491;30;20405;-71
2022/10/22 12:03:33;;;;;;;31.48;19.15;;;23.10;99.90;;;;;;4731420;30;20029;-71
2022/10/22 12:06:02;;;;;;;23.98;13.95;;;23.10;99.90;;;;;;4731899;30;20039;-71
2022/10/22 12:08:29;;;;;;;22.10;11.32;;;23.20;99.90;;;;;;4731037;30;20024;-72
2022/10/22 12:11:10;;;;;;;21.25;10.48;;;23.20;99.90;;;;;;4731497;30;20036;-71
2022/10/22 12:14:10;;;;;;;23.20;10.65;;;23.20;99.90;;;;;;4731233;30;20133;-73
2022/10/22 12:16:39;;;;;;;18.20;11.05;;;23.30;99.90;;;;;;4730598;30;20508;-73
2022/10/22 12:19:24;;;;;;;22.27;10.63;;;23.30;99.90;;;;;;4734903;30;20071;-73
2022/10/22 12:22:13;;;;;;;17.65;10.48;;;23.30;99.90;;;;;;4735413;30;20131;-74
2022/10/22 12:24:44;;;;;;;20.48;8.98;;;23.40;99.90;;;;;;4733411;30;20041;-74
2022/10/22 12:27:21;;;;;;;18.95;8.35;;;23.40;99.90;;;;;;4735061;30;20388;-74
2022/10/22 12:29:48;;;;;;;18.30;10.40;;;23.50;99.90;;;;;;4735077;30;20095;-73
2022/10/22 12:32:15;;;;;;;23.13;14.48;;;23.40;99.90;;;;;;4734688;30;20465;-72
2022/10/22 12:34:46;;;;;;;27.38;9.60;;;23.30;99.90;;;;;;4734095;30;20147;-73
2022/10/22 12:37:14;;;;;;;18.17;11.00;;;23.20;99.90;;;;;;4735200;30;20021;-74
2022/10/22 12:39:40;;;;;;;19.38;10.52;;;23.40;99.90;;;;;;4735096;30;20036;-70
2022/10/22 12:42:11;;;;;;;23.33;9.98;;;23.30;99.90;;;;;;4734931;30;20041;-72
2022/10/22 12:44:37;;;;;;;17.87;10.40;;;23.40;99.90;;;;;;4716781;30;20029;-70
2022/10/22 12:47:06;;;;;;;17.70;8.73;;;23.60;99.90;;;;;;4734823;30;20580;-72
2022/10/22 12:49:39;;;;;;;28.20;9.35;;;23.70;99.90;;;;;;4733517;30;20043;-73
2022/10/22 12:52:10;;;;;;;20.95;9.02;;;23.70;99.90;;;;;;4734538;30;20044;-73